createdAt,value
2018-12-29T00:05:01.325Z,49.73
2018-12-29T00:11:07.261Z,52.90
2018-12-29T00:17:13.024Z,53.00
2018-12-29T00:23:18.764Z,54.57
2018-12-29T00:29:24.627Z,53.57
2018-12-29T00:35:30.455Z,56.60
2018-12-29T00:41:36.250Z,50.40
2018-12-29T00:47:42.427Z,50.47
2018-12-29T00:53:48.482Z,53.00
2018-12-29T00:59:54.609Z,59.33
2018-12-29T01:06:00.359Z,56.33
2018-12-29T01:12:06.091Z,49.37
2018-12-29T01:18:11.810Z,54.97
2018-12-29T01:24:17.657Z,57.13
2018-12-29T01:30:23.828Z,49.10
2018-12-29T01:36:31.008Z,57.47
2018-12-29T01:42:36.832Z,53.37
2018-12-29T01:48:42.889Z,53.63
2018-12-29T01:54:48.881Z,54.53
2018-12-29T02:00:54.674Z,53.10
2018-12-29T02:07:00.567Z,55.13
2018-12-29T02:13:06.396Z,52.57
2018-12-29T02:19:12.191Z,56.07
2018-12-29T02:25:18.005Z,55.33
2018-12-29T02:31:24.175Z,53.33
2018-12-29T02:37:30.092Z,55.17
2018-12-29T02:43:35.922Z,55.23
2018-12-29T02:49:41.583Z,57.70
2018-12-29T02:55:47.451Z,63.43
2018-12-29T03:01:53.554Z,59.87
2018-12-29T03:07:59.455Z,56.40
2018-12-29T03:14:05.439Z,54.80
2018-12-29T03:20:11.268Z,60.80
2018-12-29T03:26:17.104Z,58.83
2018-12-29T03:32:22.998Z,61.37
2018-12-29T03:38:30.801Z,57.33
2018-12-29T03:44:36.649Z,57.17
2018-12-29T03:50:42.587Z,62.63
2018-12-29T03:56:48.400Z,63.30
2018-12-29T04:03:05.743Z,64.50
2018-12-29T04:09:33.379Z,65.23
2018-12-29T04:15:39.207Z,62.97
2018-12-29T04:21:44.905Z,61.77
2018-12-29T04:27:50.562Z,62.93
2018-12-29T04:33:56.251Z,61.23
2018-12-29T04:40:01.965Z,63.83
2018-12-29T04:46:07.618Z,63.03
2018-12-29T04:52:13.402Z,61.60
2018-12-29T04:58:19.096Z,64.53
2018-12-29T05:04:24.774Z,60.57
2018-12-29T05:10:30.531Z,56.23
2018-12-29T05:16:36.332Z,55.07
2018-12-29T05:22:42.074Z,54.03
2018-12-29T05:28:47.854Z,61.63
2018-12-29T05:34:53.513Z,57.13
2018-12-29T05:40:59.303Z,53.37
2018-12-29T05:47:05.098Z,55.03
2018-12-29T05:53:10.773Z,56.87
2018-12-29T05:59:16.584Z,58.40
2018-12-29T06:05:22.274Z,54.47
2018-12-29T06:11:28.073Z,55.40
2018-12-29T06:17:33.750Z,54.53
2018-12-29T06:23:39.472Z,58.13
2018-12-29T06:29:45.163Z,61.43
2018-12-29T06:35:50.941Z,68.90
2018-12-29T06:41:56.618Z,64.90
2018-12-29T06:48:02.393Z,67.23
2018-12-29T06:54:08.182Z,69.30
2018-12-29T07:00:14.061Z,68.93
2018-12-29T07:06:19.752Z,70.03
2018-12-29T07:12:25.432Z,71.23
2018-12-29T07:18:31.261Z,74.27
2018-12-29T07:24:37.066Z,72.23
2018-12-29T07:30:42.790Z,65.53
2018-12-29T07:36:48.513Z,73.87
2018-12-29T07:42:54.614Z,59.30
2018-12-29T07:49:00.278Z,72.17
2018-12-29T07:55:06.221Z,67.70
2018-12-29T08:01:11.953Z,70.53
2018-12-29T08:07:18.068Z,65.80
2018-12-29T08:13:23.706Z,70.70
2018-12-29T08:19:29.489Z,75.93
2018-12-29T08:25:35.273Z,72.27
2018-12-29T08:31:40.938Z,69.33
2018-12-29T08:37:46.748Z,70.93
2018-12-29T08:43:52.433Z,75.83
2018-12-29T08:49:58.267Z,64.83
2018-12-29T08:56:03.971Z,75.50
2018-12-29T09:02:09.772Z,71.20
2018-12-29T09:08:15.469Z,67.53
2018-12-29T09:14:21.151Z,64.13
2018-12-29T09:20:26.818Z,73.07
2018-12-29T09:26:32.520Z,65.07
2018-12-29T09:32:38.224Z,66.53
2018-12-29T09:38:43.894Z,60.23
2018-12-29T09:44:49.579Z,62.00
2018-12-29T09:50:55.722Z,63.87
2018-12-29T09:57:01.737Z,67.10
2018-12-29T10:03:07.535Z,59.90
2018-12-29T10:09:13.357Z,55.93
2018-12-29T10:15:19.004Z,58.23
2018-12-29T10:21:24.882Z,53.80
2018-12-29T10:27:31.355Z,53.17
2018-12-29T10:33:37.378Z,54.80
2018-12-29T10:39:43.121Z,51.43
2018-12-29T10:45:49.002Z,53.07
2018-12-29T10:51:54.885Z,49.50
2018-12-29T10:58:00.555Z,50.50
2018-12-29T11:04:06.892Z,49.67
2018-12-29T11:10:12.558Z,54.00
2018-12-29T11:16:24.372Z,54.03
2018-12-29T11:22:30.740Z,46.23
2018-12-29T11:28:36.824Z,47.13
2018-12-29T11:34:43.283Z,50.80
2018-12-29T11:40:49.289Z,50.27
2018-12-29T11:46:55.638Z,44.03
2018-12-29T11:53:01.602Z,45.80
2018-12-29T11:59:07.682Z,41.73
2018-12-29T12:05:13.476Z,39.20
2018-12-29T12:11:19.471Z,37.37
2018-12-29T12:17:25.474Z,38.17
2018-12-29T12:23:31.192Z,34.87
2018-12-29T12:29:36.978Z,36.07
2018-12-29T12:36:03.415Z,32.13
2018-12-29T12:42:09.535Z,32.67
2018-12-29T12:48:15.178Z,32.20
2018-12-29T12:54:20.886Z,31.23
2018-12-29T13:00:26.577Z,31.10
2018-12-29T13:06:33.874Z,29.53
2018-12-29T13:12:39.563Z,34.97
2018-12-29T13:18:45.388Z,29.70
2018-12-29T13:24:51.365Z,30.30
2018-12-29T13:30:57.849Z,30.93
2018-12-29T13:37:03.590Z,30.93
2018-12-29T13:43:09.401Z,29.37
2018-12-29T13:49:15.131Z,31.80
2018-12-29T13:55:21.011Z,31.67
2018-12-29T14:01:26.784Z,30.53
2018-12-29T14:07:32.493Z,29.80
2018-12-29T14:13:38.156Z,30.30
2018-12-29T14:19:44.693Z,28.37
2018-12-29T14:25:50.433Z,28.87
2018-12-29T14:31:56.138Z,27.60
2018-12-29T14:38:01.889Z,24.27
2018-12-29T14:44:07.589Z,25.53
2018-12-29T14:50:13.332Z,27.20
2018-12-29T14:56:19.045Z,26.90
2018-12-29T15:02:24.785Z,27.97
2018-12-29T15:08:30.576Z,25.30
2018-12-29T15:14:36.468Z,22.23
2018-12-29T15:20:42.147Z,24.67
2018-12-29T15:26:48.265Z,23.20
2018-12-29T15:32:54.227Z,22.33
2018-12-29T15:38:59.880Z,21.80
2018-12-29T15:45:05.916Z,26.07
2018-12-29T15:51:11.659Z,27.10
2018-12-29T15:57:17.785Z,24.63
2018-12-29T16:03:23.751Z,24.37
2018-12-29T16:09:29.890Z,22.53
2018-12-29T16:15:36.006Z,23.87
2018-12-29T16:21:41.701Z,24.17
2018-12-29T16:27:47.757Z,22.57
2018-12-29T16:33:53.979Z,23.27
2018-12-29T16:39:59.784Z,22.20
2018-12-29T16:46:05.681Z,22.50
2018-12-29T16:52:11.895Z,19.70
2018-12-29T16:58:17.960Z,21.70
2018-12-29T17:04:23.978Z,20.50
2018-12-29T17:10:29.732Z,20.70
2018-12-29T17:16:35.518Z,19.37
2018-12-29T17:22:41.230Z,22.17
2018-12-29T17:28:46.918Z,21.37
2018-12-29T17:34:52.986Z,22.77
2018-12-29T17:40:58.772Z,21.23
2018-12-29T17:47:04.491Z,22.40
2018-12-29T17:53:10.145Z,26.03
2018-12-29T17:59:15.923Z,25.33
2018-12-29T18:05:22.160Z,29.07
2018-12-29T18:11:27.914Z,28.63
2018-12-29T18:17:33.637Z,29.10
2018-12-29T18:23:39.341Z,31.07
2018-12-29T18:29:44.997Z,29.33
2018-12-29T18:35:50.692Z,31.27
2018-12-29T18:41:57.099Z,36.57
2018-12-29T18:48:02.806Z,33.50
2018-12-29T18:54:08.648Z,33.63
2018-12-29T19:00:14.475Z,35.90
2018-12-29T19:06:20.369Z,34.50
2018-12-29T19:12:26.412Z,38.23
2018-12-29T19:18:32.138Z,40.87
2018-12-29T19:24:37.811Z,36.57
2018-12-29T19:30:43.746Z,40.93
2018-12-29T19:36:50.068Z,42.37
2018-12-29T19:42:56.994Z,46.57
2018-12-29T19:49:03.632Z,40.57
2018-12-29T19:55:09.719Z,38.83
2018-12-29T20:01:15.692Z,42.13
2018-12-29T20:07:21.609Z,41.87
2018-12-29T20:13:27.624Z,38.03
2018-12-29T20:19:33.624Z,41.23
2018-12-29T20:25:39.517Z,39.70
2018-12-29T20:31:45.289Z,36.13
2018-12-29T20:37:51.059Z,32.80
2018-12-29T20:43:56.810Z,28.93
2018-12-29T20:50:09.603Z,31.13
2018-12-29T20:56:10.595Z,30.13
2018-12-29T21:02:16.306Z,30.13
2018-12-29T21:08:22.162Z,24.60
2018-12-29T21:14:28.301Z,20.13
2018-12-29T21:20:34.111Z,14.23
2018-12-29T21:26:39.940Z,15.43
2018-12-29T21:32:45.757Z,12.87
2018-12-29T21:38:51.490Z,15.57
2018-12-29T21:44:57.215Z,16.40
2018-12-29T21:51:02.952Z,19.80
2018-12-29T21:57:08.701Z,21.23
2018-12-29T22:03:14.433Z,14.03
2018-12-29T22:09:20.446Z,15.60
2018-12-29T22:15:26.198Z,12.77
2018-12-29T22:21:32.251Z,13.07
2018-12-29T22:27:38.005Z,10.43
2018-12-29T22:33:43.807Z,7.83
2018-12-29T22:39:49.571Z,11.43
2018-12-29T22:45:55.352Z,11.80
2018-12-29T22:52:01.139Z,16.43
2018-12-29T22:58:08.745Z,14.23
2018-12-29T23:04:16.016Z,9.63
2018-12-29T23:10:21.836Z,16.97
2018-12-29T23:16:27.870Z,13.93
2018-12-29T23:22:33.821Z,16.47
2018-12-29T23:28:39.523Z,12.33
2018-12-29T23:34:45.599Z,14.17
2018-12-29T23:40:51.246Z,17.40
2018-12-29T23:46:56.963Z,15.03
2018-12-29T23:53:03.039Z,11.07
2018-12-29T23:59:09.005Z,20.67
